SAOU/LUQ METAR and TAF weather

Enter ICAO airport designator
Station Type Date Time Source
SAOU METAR 2022/05/14 16:00 UTC NOAA

SAOU 141600Z 09010KT 6000 -RA BKN030 BKN050 12/10 Q1019


Station Type Date Time Source
SAOU Decoded METAR 2022/05/14 16:00 UTC NOAA

San Luis Aerodrome, Argentina (SAOU) 33-16S 066-21W 713M
May 14, 2022 - 12:00 PM EDT / 2022.05.14 1600 UTC
Wind: from the E (090 degrees) at 12 MPH (10 KT):0
Visibility: 3 mile(s):0
Sky conditions: mostly cloudy
Weather: light rain
Temperature: 53 F (12 C)
Dew Point: 50 F (10 C)
Relative Humidity: 87%
Pressure (altimeter): 30.09 in. Hg (1019 hPa)
ob: SAOU 141600Z 09010KT 6000 -RA BKN030 BKN050 12/10 Q1019
cycle: 16

Station Type Date Time Source
SAOU TAF 2022/04/18 00:09 UTC NOAA

TAF SAOU 172300Z 1800/1824 VRB03KT CAVOK TX27/1820Z TN12/1810Z
BECMG 1806/1808 36010KT

Example: see airport list